Terminal Aerodrome Forecast
Issued by NWS Shreveport, LA

Home | Current Version | Previous Version | Text Only | Print | Product List | Glossary On
Versions: 1 2 3 4 5 6 7 8 9 10 11 12 13 14 15 16 17 18
000
FTUS44 KSHV 270309 AAB
TAFMLU
TAF AMD
KMLU 270309Z 2703/2724 01008KT P6SM OVC035
     FM270400 VRB03KT P6SM SKC
     FM271700 30007KT P6SM FEW250=

USA.gov is the U.S. government's official web portal to all federal, state and local government web resources and services.